Pajares, Asturias

latitud = 42° 58' 37''N | longitud = 005° 46' 41''W
1460 metros sobre el nivel del mar | datos mensuales

Fecha, hora, temperatura, viento dirección y velocidad, humedad y presión.

  • 22-11-2017 09:00:00 | 5.40°C | Sur |18.00 km/h | 53.00% | 0.00 hPa
  • 22-11-2017 08:00:00 | 4.50°C | Sur |21.00 km/h | 54.00% | 0.00 hPa
  • 22-11-2017 07:00:00 | 4.20°C | Sur |22.00 km/h | 54.00% | 0.00 hPa
  • 22-11-2017 06:00:00 | 4.30°C | Sur |21.00 km/h | 53.00% | 0.00 hPa
  • 22-11-2017 05:00:00 | 4.40°C | Sur |21.00 km/h | 53.00% | 0.00 hPa
  • 22-11-2017 04:00:00 | 4.80°C | Sur |20.00 km/h | 50.00% | 0.00 hPa
  • 22-11-2017 03:00:00 | 5.30°C | Sur |19.00 km/h | 49.00% | 0.00 hPa
  • 22-11-2017 02:00:00 | 5.30°C | Sur |27.00 km/h | 49.00% | 0.00 hPa
  • 22-11-2017 01:00:00 | 5.30°C | Sur |21.00 km/h | 46.00% | 0.00 hPa
  • 22-11-2017 00:00:00 | 5.90°C | Sur |21.00 km/h | 42.00% | 0.00 hPa
  • 21-11-2017 23:00:00 | 6.80°C | Sur |21.00 km/h | 41.00% | 0.00 hPa
  • 21-11-2017 22:00:00 | 5.90°C | Sur |26.00 km/h | 44.00% | 0.00 hPa
  • 21-11-2017 21:00:00 | 6.10°C | Sur |31.00 km/h | 44.00% | 0.00 hPa
  • 21-11-2017 20:00:00 | 5.60°C | Sur |28.00 km/h | 44.00% | 0.00 hPa
  • 21-11-2017 19:00:00 | 6.30°C | Sur |21.00 km/h | 41.00% | 0.00 hPa
  • 21-11-2017 18:00:00 | 6.90°C | Sur |26.00 km/h | 39.00% | 0.00 hPa
  • 21-11-2017 17:00:00 | 8.90°C | Sur |17.00 km/h | 35.00% | 0.00 hPa
  • 21-11-2017 16:00:00 | 10.60°C | Sur |14.00 km/h | 34.00% | 0.00 hPa
  • 21-11-2017 15:00:00 | 11.20°C | Sur |12.00 km/h | 33.00% | 0.00 hPa
  • 21-11-2017 14:00:00 | 11.70°C | Sudeste |10.00 km/h | 33.00% | 0.00 hPa
  • 21-11-2017 13:00:00 | 10.50°C | Sur |18.00 km/h | 34.00% | 0.00 hPa
  • 21-11-2017 12:00:00 | 11.10°C | Sur |6.00 km/h | 33.00% | 0.00 hPa
  • 21-11-2017 11:00:00 | 10.00°C | Sur |10.00 km/h | 34.00% | 0.00 hPa
  • 21-11-2017 10:00:00 | 8.20°C | Sur |17.00 km/h | 36.00% | 0.00 hPa